sensor_id;sensor_type;location;lat;lon;timestamp;P1;durP1;ratioP1;P2;durP2;ratioP2
75450;SDS011;64029;48.244;9.188;2023-08-31T00:00:00;4.10;;;3.70;;
75450;SDS011;64029;48.244;9.188;2023-08-31T00:02:29;3.63;;;3.33;;
75450;SDS011;64029;48.244;9.188;2023-08-31T00:04:57;7.00;;;3.80;;
75450;SDS011;64029;48.244;9.188;2023-08-31T00:07:24;3.63;;;3.20;;
75450;SDS011;64029;48.244;9.188;2023-08-31T00:09:51;3.40;;;3.10;;
75450;SDS011;64029;48.244;9.188;2023-08-31T00:12:19;3.33;;;3.03;;
75450;SDS011;64029;48.244;9.188;2023-08-31T00:14:47;3.50;;;3.10;;
75450;SDS011;64029;48.244;9.188;2023-08-31T00:17:15;4.30;;;3.37;;
75450;SDS011;64029;48.244;9.188;2023-08-31T00:19:42;5.07;;;3.17;;
75450;SDS011;64029;48.244;9.188;2023-08-31T00:22:11;3.10;;;2.90;;
75450;SDS011;64029;48.244;9.188;2023-08-31T00:24:38;3.23;;;3.03;;
75450;SDS011;64029;48.244;9.188;2023-08-31T00:27:04;4.87;;;4.03;;
75450;SDS011;64029;48.244;9.188;2023-08-31T00:29:31;4.47;;;3.40;;
75450;SDS011;64029;48.244;9.188;2023-08-31T00:31:58;3.93;;;3.33;;
75450;SDS011;64029;48.244;9.188;2023-08-31T00:34:25;3.70;;;3.20;;
75450;SDS011;64029;48.244;9.188;2023-08-31T00:36:52;3.63;;;3.33;;
75450;SDS011;64029;48.244;9.188;2023-08-31T00:39:21;3.80;;;3.20;;
75450;SDS011;64029;48.244;9.188;2023-08-31T00:41:48;5.50;;;3.33;;
75450;SDS011;64029;48.244;9.188;2023-08-31T00:44:15;3.67;;;3.30;;
75450;SDS011;64029;48.244;9.188;2023-08-31T00:46:42;3.90;;;3.30;;
75450;SDS011;64029;48.244;9.188;2023-08-31T00:49:09;4.00;;;3.60;;
75450;SDS011;64029;48.244;9.188;2023-08-31T00:51:37;3.70;;;3.40;;
75450;SDS011;64029;48.244;9.188;2023-08-31T00:54:04;3.87;;;3.00;;
75450;SDS011;64029;48.244;9.188;2023-08-31T00:56:32;3.27;;;2.97;;
75450;SDS011;64029;48.244;9.188;2023-08-31T00:58:59;5.80;;;3.10;;
75450;SDS011;64029;48.244;9.188;2023-08-31T01:01:27;3.53;;;3.23;;
75450;SDS011;64029;48.244;9.188;2023-08-31T01:04:03;5.43;;;3.17;;
75450;SDS011;64029;48.244;9.188;2023-08-31T01:06:46;3.47;;;2.90;;
75450;SDS011;64029;48.244;9.188;2023-08-31T01:09:22;3.10;;;2.80;;
75450;SDS011;64029;48.244;9.188;2023-08-31T01:11:57;3.03;;;2.73;;
75450;SDS011;64029;48.244;9.188;2023-08-31T01:14:32;4.27;;;3.23;;
75450;SDS011;64029;48.244;9.188;2023-08-31T01:17:04;3.70;;;3.00;;
75450;SDS011;64029;48.244;9.188;2023-08-31T01:19:42;2.70;;;2.50;;
75450;SDS011;64029;48.244;9.188;2023-08-31T01:22:14;4.33;;;3.00;;
75450;SDS011;64029;48.244;9.188;2023-08-31T01:24:49;3.30;;;3.00;;
75450;SDS011;64029;48.244;9.188;2023-08-31T01:27:16;4.03;;;3.10;;
75450;SDS011;64029;48.244;9.188;2023-08-31T01:29:44;2.97;;;2.77;;
75450;SDS011;64029;48.244;9.188;2023-08-31T01:32:11;3.30;;;3.00;;
75450;SDS011;64029;48.244;9.188;2023-08-31T01:34:38;2.70;;;2.43;;
75450;SDS011;64029;48.244;9.188;2023-08-31T01:37:07;2.33;;;2.13;;
75450;SDS011;64029;48.244;9.188;2023-08-31T01:39:39;2.57;;;2.37;;
75450;SDS011;64029;48.244;9.188;2023-08-31T01:42:12;3.00;;;2.70;;
75450;SDS011;64029;48.244;9.188;2023-08-31T01:44:42;4.13;;;2.67;;
75450;SDS011;64029;48.244;9.188;2023-08-31T01:47:12;2.63;;;2.43;;
75450;SDS011;64029;48.244;9.188;2023-08-31T01:49:41;2.80;;;2.57;;
75450;SDS011;64029;48.244;9.188;2023-08-31T01:52:09;3.03;;;2.13;;
75450;SDS011;64029;48.244;9.188;2023-08-31T01:54:35;3.77;;;2.43;;
75450;SDS011;64029;48.244;9.188;2023-08-31T01:57:03;4.20;;;1.97;;
75450;SDS011;64029;48.244;9.188;2023-08-31T01:59:32;2.97;;;2.30;;
75450;SDS011;64029;48.244;9.188;2023-08-31T02:01:59;3.90;;;2.43;;
75450;SDS011;64029;48.244;9.188;2023-08-31T02:04:26;2.10;;;1.90;;
75450;SDS011;64029;48.244;9.188;2023-08-31T02:06:53;2.30;;;1.83;;
75450;SDS011;64029;48.244;9.188;2023-08-31T02:09:19;5.60;;;1.87;;
75450;SDS011;64029;48.244;9.188;2023-08-31T02:11:46;1.93;;;1.80;;
75450;SDS011;64029;48.244;9.188;2023-08-31T02:14:13;3.73;;;2.23;;
75450;SDS011;64029;48.244;9.188;2023-08-31T02:16:41;2.00;;;1.87;;
75450;SDS011;64029;48.244;9.188;2023-08-31T02:19:08;2.87;;;1.93;;
75450;SDS011;64029;48.244;9.188;2023-08-31T02:21:35;2.50;;;2.17;;
75450;SDS011;64029;48.244;9.188;2023-08-31T02:24:02;1.93;;;1.83;;
75450;SDS011;64029;48.244;9.188;2023-08-31T02:26:29;3.20;;;2.20;;
75450;SDS011;64029;48.244;9.188;2023-08-31T02:28:56;2.70;;;2.50;;
75450;SDS011;64029;48.244;9.188;2023-08-31T02:31:23;5.43;;;1.63;;
75450;SDS011;64029;48.244;9.188;2023-08-31T02:33:51;2.27;;;2.07;;
75450;SDS011;64029;48.244;9.188;2023-08-31T02:36:18;2.03;;;1.90;;
75450;SDS011;64029;48.244;9.188;2023-08-31T02:38:46;3.20;;;2.00;;
75450;SDS011;64029;48.244;9.188;2023-08-31T02:41:14;2.30;;;2.10;;
75450;SDS011;64029;48.244;9.188;2023-08-31T02:43:41;2.17;;;1.97;;
75450;SDS011;64029;48.244;9.188;2023-08-31T02:46:08;2.23;;;1.80;;
75450;SDS011;64029;48.244;9.188;2023-08-31T02:48:35;2.40;;;2.20;;
75450;SDS011;64029;48.244;9.188;2023-08-31T02:51:03;2.60;;;2.00;;
75450;SDS011;64029;48.244;9.188;2023-08-31T02:53:30;2.13;;;1.90;;
75450;SDS011;64029;48.244;9.188;2023-08-31T02:55:57;2.83;;;1.83;;
75450;SDS011;64029;48.244;9.188;2023-08-31T02:58:24;2.07;;;1.90;;
75450;SDS011;64029;48.244;9.188;2023-08-31T03:00:51;2.90;;;2.50;;
75450;SDS011;64029;48.244;9.188;2023-08-31T03:03:18;1.73;;;1.63;;
75450;SDS011;64029;48.244;9.188;2023-08-31T03:05:45;2.23;;;2.03;;
75450;SDS011;64029;48.244;9.188;2023-08-31T03:08:13;3.60;;;2.10;;
75450;SDS011;64029;48.244;9.188;2023-08-31T03:10:40;2.63;;;2.30;;
75450;SDS011;64029;48.244;9.188;2023-08-31T03:13:07;3.27;;;2.37;;
75450;SDS011;64029;48.244;9.188;2023-08-31T03:15:34;4.03;;;2.40;;
75450;SDS011;64029;48.244;9.188;2023-08-31T03:18:01;2.47;;;2.27;;
75450;SDS011;64029;48.244;9.188;2023-08-31T03:20:27;2.50;;;2.17;;
75450;SDS011;64029;48.244;9.188;2023-08-31T03:22:54;2.40;;;2.20;;
75450;SDS011;64029;48.244;9.188;2023-08-31T03:25:22;2.77;;;2.17;;
75450;SDS011;64029;48.244;9.188;2023-08-31T03:27:50;2.40;;;2.20;;
75450;SDS011;64029;48.244;9.188;2023-08-31T03:30:17;2.40;;;1.93;;
75450;SDS011;64029;48.244;9.188;2023-08-31T03:32:43;3.10;;;2.40;;
75450;SDS011;64029;48.244;9.188;2023-08-31T03:35:10;4.20;;;2.20;;
75450;SDS011;64029;48.244;9.188;2023-08-31T03:37:37;4.40;;;2.23;;
75450;SDS011;64029;48.244;9.188;2023-08-31T03:40:05;2.40;;;2.20;;
75450;SDS011;64029;48.244;9.188;2023-08-31T03:42:34;2.80;;;2.50;;
75450;SDS011;64029;48.244;9.188;2023-08-31T03:45:01;2.80;;;2.17;;
75450;SDS011;64029;48.244;9.188;2023-08-31T03:47:28;2.53;;;2.10;;
75450;SDS011;64029;48.244;9.188;2023-08-31T03:49:55;2.83;;;2.03;;
75450;SDS011;64029;48.244;9.188;2023-08-31T03:52:22;8.90;;;1.80;;
75450;SDS011;64029;48.244;9.188;2023-08-31T03:54:49;3.90;;;2.33;;
75450;SDS011;64029;48.244;9.188;2023-08-31T03:57:17;4.00;;;2.23;;
75450;SDS011;64029;48.244;9.188;2023-08-31T03:59:45;5.97;;;2.17;;
75450;SDS011;64029;48.244;9.188;2023-08-31T04:02:12;4.83;;;2.03;;
75450;SDS011;64029;48.244;9.188;2023-08-31T04:04:39;2.90;;;2.37;;
75450;SDS011;64029;48.244;9.188;2023-08-31T04:07:06;2.80;;;2.40;;
75450;SDS011;64029;48.244;9.188;2023-08-31T04:09:33;4.60;;;2.27;;
75450;SDS011;64029;48.244;9.188;2023-08-31T04:12:01;3.90;;;2.30;;
75450;SDS011;64029;48.244;9.188;2023-08-31T04:14:28;4.40;;;2.33;;
75450;SDS011;64029;48.244;9.188;2023-08-31T04:16:57;4.33;;;2.80;;
75450;SDS011;64029;48.244;9.188;2023-08-31T04:19:23;4.33;;;2.63;;
75450;SDS011;64029;48.244;9.188;2023-08-31T04:21:50;2.97;;;2.70;;
75450;SDS011;64029;48.244;9.188;2023-08-31T04:24:17;5.30;;;2.80;;
75450;SDS011;64029;48.244;9.188;2023-08-31T04:26:44;3.47;;;2.60;;
75450;SDS011;64029;48.244;9.188;2023-08-31T04:29:13;3.30;;;2.23;;
75450;SDS011;64029;48.244;9.188;2023-08-31T04:31:39;3.60;;;2.90;;
75450;SDS011;64029;48.244;9.188;2023-08-31T04:34:08;4.00;;;3.60;;
75450;SDS011;64029;48.244;9.188;2023-08-31T04:36:34;4.73;;;4.10;;
75450;SDS011;64029;48.244;9.188;2023-08-31T04:39:01;3.73;;;3.40;;
75450;SDS011;64029;48.244;9.188;2023-08-31T04:41:29;3.77;;;3.37;;
75450;SDS011;64029;48.244;9.188;2023-08-31T04:43:56;4.43;;;3.40;;
75450;SDS011;64029;48.244;9.188;2023-08-31T04:46:23;3.30;;;2.90;;
75450;SDS011;64029;48.244;9.188;2023-08-31T04:48:50;4.60;;;3.47;;
75450;SDS011;64029;48.244;9.188;2023-08-31T04:51:28;3.37;;;3.07;;
75450;SDS011;64029;48.244;9.188;2023-08-31T04:53:57;2.90;;;2.30;;
75450;SDS011;64029;48.244;9.188;2023-08-31T04:56:24;3.13;;;2.87;;
75450;SDS011;64029;48.244;9.188;2023-08-31T04:58:51;3.50;;;2.40;;
75450;SDS011;64029;48.244;9.188;2023-08-31T05:01:18;3.70;;;3.03;;
75450;SDS011;64029;48.244;9.188;2023-08-31T05:03:44;6.20;;;3.07;;
75450;SDS011;64029;48.244;9.188;2023-08-31T05:06:11;2.40;;;2.20;;
75450;SDS011;64029;48.244;9.188;2023-08-31T05:08:39;2.57;;;2.30;;
75450;SDS011;64029;48.244;9.188;2023-08-31T05:11:06;3.70;;;2.67;;
75450;SDS011;64029;48.244;9.188;2023-08-31T05:13:33;6.03;;;4.30;;
75450;SDS011;64029;48.244;9.188;2023-08-31T05:16:00;4.20;;;3.20;;
75450;SDS011;64029;48.244;9.188;2023-08-31T05:18:27;5.47;;;3.10;;
75450;SDS011;64029;48.244;9.188;2023-08-31T05:20:54;2.87;;;2.67;;
75450;SDS011;64029;48.244;9.188;2023-08-31T05:23:21;5.10;;;2.70;;
75450;SDS011;64029;48.244;9.188;2023-08-31T05:25:49;3.83;;;3.10;;
75450;SDS011;64029;48.244;9.188;2023-08-31T05:28:16;3.37;;;3.10;;
75450;SDS011;64029;48.244;9.188;2023-08-31T05:30:47;3.93;;;2.87;;
75450;SDS011;64029;48.244;9.188;2023-08-31T05:33:15;5.80;;;3.03;;
75450;SDS011;64029;48.244;9.188;2023-08-31T05:35:42;11.40;;;3.30;;
75450;SDS011;64029;48.244;9.188;2023-08-31T05:38:09;4.10;;;2.57;;
75450;SDS011;64029;48.244;9.188;2023-08-31T05:40:36;3.10;;;2.83;;
75450;SDS011;64029;48.244;9.188;2023-08-31T05:43:04;3.67;;;3.20;;
75450;SDS011;64029;48.244;9.188;2023-08-31T05:45:32;3.83;;;2.80;;
75450;SDS011;64029;48.244;9.188;2023-08-31T05:47:59;5.70;;;2.57;;
75450;SDS011;64029;48.244;9.188;2023-08-31T05:50:26;2.80;;;2.43;;
75450;SDS011;64029;48.244;9.188;2023-08-31T05:52:53;3.27;;;2.40;;
75450;SDS011;64029;48.244;9.188;2023-08-31T05:55:20;3.60;;;2.50;;
75450;SDS011;64029;48.244;9.188;2023-08-31T05:57:47;3.10;;;2.80;;
75450;SDS011;64029;48.244;9.188;2023-08-31T06:00:16;3.30;;;3.00;;
75450;SDS011;64029;48.244;9.188;2023-08-31T06:02:44;2.60;;;2.40;;
75450;SDS011;64029;48.244;9.188;2023-08-31T06:05:11;3.10;;;2.80;;
75450;SDS011;64029;48.244;9.188;2023-08-31T06:07:38;2.57;;;2.37;;
75450;SDS011;64029;48.244;9.188;2023-08-31T06:10:06;6.13;;;3.20;;
75450;SDS011;64029;48.244;9.188;2023-08-31T06:12:33;3.80;;;2.83;;
75450;SDS011;64029;48.244;9.188;2023-08-31T06:15:00;3.70;;;2.90;;
75450;SDS011;64029;48.244;9.188;2023-08-31T06:17:29;4.37;;;2.77;;
75450;SDS011;64029;48.244;9.188;2023-08-31T06:19:56;4.83;;;3.27;;
75450;SDS011;64029;48.244;9.188;2023-08-31T06:22:23;3.30;;;3.00;;
75450;SDS011;64029;48.244;9.188;2023-08-31T06:24:49;3.40;;;3.10;;
75450;SDS011;64029;48.244;9.188;2023-08-31T06:27:17;3.43;;;3.13;;
75450;SDS011;64029;48.244;9.188;2023-08-31T06:29:44;4.07;;;3.07;;
75450;SDS011;64029;48.244;9.188;2023-08-31T06:32:10;5.90;;;3.43;;
75450;SDS011;64029;48.244;9.188;2023-08-31T06:34:39;2.93;;;2.63;;
75450;SDS011;64029;48.244;9.188;2023-08-31T06:37:05;3.60;;;3.30;;
75450;SDS011;64029;48.244;9.188;2023-08-31T06:39:32;2.80;;;2.60;;
75450;SDS011;64029;48.244;9.188;2023-08-31T06:41:59;3.90;;;3.10;;
75450;SDS011;64029;48.244;9.188;2023-08-31T06:44:26;2.60;;;2.40;;
75450;SDS011;64029;48.244;9.188;2023-08-31T06:46:54;4.23;;;2.80;;
75450;SDS011;64029;48.244;9.188;2023-08-31T06:49:21;3.50;;;2.67;;
75450;SDS011;64029;48.244;9.188;2023-08-31T06:51:50;2.60;;;2.40;;
75450;SDS011;64029;48.244;9.188;2023-08-31T06:54:19;3.77;;;2.80;;
75450;SDS011;64029;48.244;9.188;2023-08-31T06:56:45;3.73;;;3.10;;
75450;SDS011;64029;48.244;9.188;2023-08-31T06:59:13;4.50;;;2.43;;
75450;SDS011;64029;48.244;9.188;2023-08-31T07:01:40;3.00;;;2.47;;
75450;SDS011;64029;48.244;9.188;2023-08-31T07:04:07;4.00;;;3.23;;
75450;SDS011;64029;48.244;9.188;2023-08-31T07:06:34;4.20;;;3.10;;
75450;SDS011;64029;48.244;9.188;2023-08-31T07:09:03;6.70;;;3.00;;
75450;SDS011;64029;48.244;9.188;2023-08-31T07:11:33;5.93;;;2.50;;
75450;SDS011;64029;48.244;9.188;2023-08-31T07:14:00;4.60;;;3.50;;
75450;SDS011;64029;48.244;9.188;2023-08-31T07:16:27;5.50;;;3.43;;
75450;SDS011;64029;48.244;9.188;2023-08-31T07:18:54;5.90;;;2.80;;
75450;SDS011;64029;48.244;9.188;2023-08-31T07:21:20;3.90;;;2.60;;
75450;SDS011;64029;48.244;9.188;2023-08-31T07:23:47;4.40;;;2.20;;
75450;SDS011;64029;48.244;9.188;2023-08-31T07:26:15;3.20;;;2.90;;
75450;SDS011;64029;48.244;9.188;2023-08-31T07:28:42;6.27;;;2.80;;
75450;SDS011;64029;48.244;9.188;2023-08-31T07:31:09;2.20;;;2.00;;
75450;SDS011;64029;48.244;9.188;2023-08-31T07:33:36;5.73;;;2.60;;
75450;SDS011;64029;48.244;9.188;2023-08-31T07:36:04;10.67;;;3.57;;
75450;SDS011;64029;48.244;9.188;2023-08-31T07:38:31;4.33;;;2.47;;
75450;SDS011;64029;48.244;9.188;2023-08-31T07:40:58;4.53;;;2.27;;
75450;SDS011;64029;48.244;9.188;2023-08-31T07:43:27;2.97;;;2.30;;
75450;SDS011;64029;48.244;9.188;2023-08-31T07:45:54;4.67;;;2.53;;
75450;SDS011;64029;48.244;9.188;2023-08-31T07:48:21;3.77;;;2.20;;
75450;SDS011;64029;48.244;9.188;2023-08-31T07:50:49;5.80;;;2.60;;
75450;SDS011;64029;48.244;9.188;2023-08-31T07:53:16;4.97;;;2.13;;
75450;SDS011;64029;48.244;9.188;2023-08-31T07:55:50;4.23;;;2.30;;
75450;SDS011;64029;48.244;9.188;2023-08-31T07:58:19;3.27;;;2.00;;
75450;SDS011;64029;48.244;9.188;2023-08-31T08:00:47;7.03;;;2.27;;
75450;SDS011;64029;48.244;9.188;2023-08-31T08:03:14;4.00;;;2.20;;
75450;SDS011;64029;48.244;9.188;2023-08-31T08:05:41;2.70;;;2.10;;
75450;SDS011;64029;48.244;9.188;2023-08-31T08:08:09;5.87;;;2.07;;
75450;SDS011;64029;48.244;9.188;2023-08-31T08:10:36;2.63;;;1.80;;
75450;SDS011;64029;48.244;9.188;2023-08-31T08:13:03;2.97;;;2.33;;
75450;SDS011;64029;48.244;9.188;2023-08-31T08:15:30;2.23;;;1.60;;
75450;SDS011;64029;48.244;9.188;2023-08-31T08:17:59;2.63;;;2.20;;
75450;SDS011;64029;48.244;9.188;2023-08-31T08:20:26;4.90;;;2.40;;
75450;SDS011;64029;48.244;9.188;2023-08-31T08:22:54;3.63;;;2.00;;
75450;SDS011;64029;48.244;9.188;2023-08-31T08:25:22;5.50;;;2.10;;
75450;SDS011;64029;48.244;9.188;2023-08-31T08:27:49;4.20;;;2.20;;
75450;SDS011;64029;48.244;9.188;2023-08-31T08:30:16;7.20;;;2.00;;
75450;SDS011;64029;48.244;9.188;2023-08-31T08:32:44;2.43;;;2.00;;
75450;SDS011;64029;48.244;9.188;2023-08-31T08:35:12;6.90;;;2.20;;
75450;SDS011;64029;48.244;9.188;2023-08-31T08:37:39;5.63;;;2.20;;
75450;SDS011;64029;48.244;9.188;2023-08-31T08:40:06;5.20;;;2.20;;
75450;SDS011;64029;48.244;9.188;2023-08-31T08:42:38;3.27;;;2.20;;
75450;SDS011;64029;48.244;9.188;2023-08-31T08:45:07;6.47;;;2.10;;
75450;SDS011;64029;48.244;9.188;2023-08-31T08:47:40;6.00;;;2.77;;
75450;SDS011;64029;48.244;9.188;2023-08-31T08:50:08;3.53;;;2.67;;
75450;SDS011;64029;48.244;9.188;2023-08-31T08:52:37;3.67;;;2.47;;
75450;SDS011;64029;48.244;9.188;2023-08-31T08:55:06;5.00;;;1.80;;
75450;SDS011;64029;48.244;9.188;2023-08-31T08:57:34;3.33;;;2.10;;
75450;SDS011;64029;48.244;9.188;2023-08-31T09:00:01;5.37;;;2.00;;
75450;SDS011;64029;48.244;9.188;2023-08-31T09:02:29;5.57;;;2.57;;
75450;SDS011;64029;48.244;9.188;2023-08-31T09:04:56;4.43;;;2.30;;
75450;SDS011;64029;48.244;9.188;2023-08-31T09:07:23;3.90;;;1.80;;
75450;SDS011;64029;48.244;9.188;2023-08-31T09:09:53;2.73;;;2.10;;
75450;SDS011;64029;48.244;9.188;2023-08-31T09:12:21;3.17;;;1.83;;
75450;SDS011;64029;48.244;9.188;2023-08-31T09:14:59;4.10;;;1.87;;
75450;SDS011;64029;48.244;9.188;2023-08-31T09:17:28;4.93;;;1.80;;
75450;SDS011;64029;48.244;9.188;2023-08-31T09:20:04;3.20;;;1.80;;
75450;SDS011;64029;48.244;9.188;2023-08-31T09:22:32;4.40;;;2.13;;
75450;SDS011;64029;48.244;9.188;2023-08-31T09:25:01;5.07;;;2.10;;
75450;SDS011;64029;48.244;9.188;2023-08-31T09:27:29;3.07;;;1.90;;
75450;SDS011;64029;48.244;9.188;2023-08-31T09:29:58;2.80;;;2.23;;
75450;SDS011;64029;48.244;9.188;2023-08-31T09:32:25;4.70;;;1.90;;
75450;SDS011;64029;48.244;9.188;2023-08-31T09:34:52;3.40;;;2.20;;
75450;SDS011;64029;48.244;9.188;2023-08-31T09:37:19;5.67;;;2.90;;
75450;SDS011;64029;48.244;9.188;2023-08-31T09:39:46;4.33;;;2.10;;
75450;SDS011;64029;48.244;9.188;2023-08-31T09:42:15;3.90;;;1.97;;
75450;SDS011;64029;48.244;9.188;2023-08-31T09:44:42;3.33;;;1.80;;
75450;SDS011;64029;48.244;9.188;2023-08-31T09:47:10;5.53;;;1.97;;
75450;SDS011;64029;48.244;9.188;2023-08-31T09:49:39;6.57;;;2.40;;
75450;SDS011;64029;48.244;9.188;2023-08-31T09:52:08;4.90;;;2.27;;
75450;SDS011;64029;48.244;9.188;2023-08-31T09:54:36;2.93;;;1.87;;
75450;SDS011;64029;48.244;9.188;2023-08-31T09:57:03;3.77;;;1.80;;
75450;SDS011;64029;48.244;9.188;2023-08-31T09:59:33;4.43;;;1.90;;
75450;SDS011;64029;48.244;9.188;2023-08-31T10:02:00;7.20;;;2.00;;
75450;SDS011;64029;48.244;9.188;2023-08-31T10:04:29;2.60;;;2.27;;
75450;SDS011;64029;48.244;9.188;2023-08-31T10:06:58;3.73;;;1.87;;
75450;SDS011;64029;48.244;9.188;2023-08-31T10:09:25;3.70;;;1.80;;
75450;SDS011;64029;48.244;9.188;2023-08-31T10:11:54;3.17;;;2.23;;
75450;SDS011;64029;48.244;9.188;2023-08-31T10:14:21;3.17;;;1.60;;
75450;SDS011;64029;48.244;9.188;2023-08-31T10:16:50;7.40;;;1.93;;
75450;SDS011;64029;48.244;9.188;2023-08-31T10:19:19;4.10;;;1.97;;
75450;SDS011;64029;48.244;9.188;2023-08-31T10:21:46;4.80;;;2.00;;
75450;SDS011;64029;48.244;9.188;2023-08-31T10:24:13;3.03;;;1.90;;
75450;SDS011;64029;48.244;9.188;2023-08-31T10:26:39;3.30;;;1.73;;
75450;SDS011;64029;48.244;9.188;2023-08-31T10:29:06;3.70;;;2.40;;
75450;SDS011;64029;48.244;9.188;2023-08-31T10:31:54;5.13;;;2.10;;
75450;SDS011;64029;48.244;9.188;2023-08-31T10:34:33;4.87;;;3.10;;
75450;SDS011;64029;48.244;9.188;2023-08-31T10:37:02;2.93;;;1.60;;
75450;SDS011;64029;48.244;9.188;2023-08-31T10:39:45;3.57;;;2.27;;
75450;SDS011;64029;48.244;9.188;2023-08-31T10:42:12;4.80;;;2.00;;
75450;SDS011;64029;48.244;9.188;2023-08-31T10:44:41;3.50;;;2.13;;
75450;SDS011;64029;48.244;9.188;2023-08-31T10:47:10;3.73;;;2.10;;
75450;SDS011;64029;48.244;9.188;2023-08-31T10:49:37;3.30;;;1.90;;
75450;SDS011;64029;48.244;9.188;2023-08-31T10:52:17;9.50;;;1.90;;
75450;SDS011;64029;48.244;9.188;2023-08-31T10:54:45;10.67;;;2.50;;
75450;SDS011;64029;48.244;9.188;2023-08-31T10:57:13;2.47;;;1.60;;
75450;SDS011;64029;48.244;9.188;2023-08-31T10:59:42;3.73;;;1.90;;
75450;SDS011;64029;48.244;9.188;2023-08-31T11:02:29;3.50;;;2.20;;
75450;SDS011;64029;48.244;9.188;2023-08-31T11:05:00;4.37;;;2.00;;
75450;SDS011;64029;48.244;9.188;2023-08-31T11:07:29;3.07;;;1.87;;
75450;SDS011;64029;48.244;9.188;2023-08-31T11:10:09;4.17;;;3.03;;
75450;SDS011;64029;48.244;9.188;2023-08-31T11:12:37;5.50;;;2.10;;
75450;SDS011;64029;48.244;9.188;2023-08-31T11:15:05;4.40;;;2.00;;
75450;SDS011;64029;48.244;9.188;2023-08-31T11:17:34;3.87;;;1.80;;
75450;SDS011;64029;48.244;9.188;2023-08-31T11:20:05;3.93;;;1.93;;
75450;SDS011;64029;48.244;9.188;2023-08-31T11:22:34;4.10;;;2.00;;
75450;SDS011;64029;48.244;9.188;2023-08-31T11:25:04;2.80;;;2.10;;
75450;SDS011;64029;48.244;9.188;2023-08-31T11:27:31;5.67;;;2.20;;
75450;SDS011;64029;48.244;9.188;2023-08-31T11:29:58;8.87;;;1.80;;
75450;SDS011;64029;48.244;9.188;2023-08-31T11:32:25;4.53;;;2.10;;
75450;SDS011;64029;48.244;9.188;2023-08-31T11:34:53;5.70;;;2.40;;
75450;SDS011;64029;48.244;9.188;2023-08-31T11:37:20;4.57;;;1.60;;
75450;SDS011;64029;48.244;9.188;2023-08-31T11:39:49;3.20;;;1.93;;
75450;SDS011;64029;48.244;9.188;2023-08-31T11:42:16;2.87;;;1.83;;
75450;SDS011;64029;48.244;9.188;2023-08-31T11:44:45;8.03;;;2.10;;
75450;SDS011;64029;48.244;9.188;2023-08-31T11:47:12;1.93;;;1.60;;
75450;SDS011;64029;48.244;9.188;2023-08-31T11:49:41;2.27;;;1.80;;
75450;SDS011;64029;48.244;9.188;2023-08-31T11:52:10;5.53;;;1.70;;
75450;SDS011;64029;48.244;9.188;2023-08-31T11:54:38;3.33;;;2.37;;
75450;SDS011;64029;48.244;9.188;2023-08-31T11:57:06;2.10;;;1.90;;
75450;SDS011;64029;48.244;9.188;2023-08-31T11:59:34;4.80;;;2.43;;
75450;SDS011;64029;48.244;9.188;2023-08-31T12:02:04;3.50;;;1.70;;
75450;SDS011;64029;48.244;9.188;2023-08-31T12:04:32;3.20;;;1.90;;
75450;SDS011;64029;48.244;9.188;2023-08-31T12:07:00;4.63;;;2.33;;
75450;SDS011;64029;48.244;9.188;2023-08-31T12:09:31;3.33;;;1.90;;
75450;SDS011;64029;48.244;9.188;2023-08-31T12:11:58;4.17;;;1.60;;
75450;SDS011;64029;48.244;9.188;2023-08-31T12:14:25;3.37;;;1.50;;
75450;SDS011;64029;48.244;9.188;2023-08-31T12:16:59;2.40;;;1.77;;
75450;SDS011;64029;48.244;9.188;2023-08-31T12:19:28;6.70;;;1.83;;
75450;SDS011;64029;48.244;9.188;2023-08-31T12:21:55;1.93;;;1.73;;
75450;SDS011;64029;48.244;9.188;2023-08-31T12:24:23;4.53;;;1.90;;
75450;SDS011;64029;48.244;9.188;2023-08-31T12:26:51;4.30;;;2.23;;
75450;SDS011;64029;48.244;9.188;2023-08-31T12:29:20;4.40;;;2.07;;
75450;SDS011;64029;48.244;9.188;2023-08-31T12:31:47;3.27;;;1.67;;
75450;SDS011;64029;48.244;9.188;2023-08-31T12:34:14;3.50;;;1.73;;
75450;SDS011;64029;48.244;9.188;2023-08-31T12:36:41;3.10;;;1.83;;
75450;SDS011;64029;48.244;9.188;2023-08-31T12:39:08;2.53;;;1.80;;
75450;SDS011;64029;48.244;9.188;2023-08-31T12:41:35;3.60;;;1.97;;
75450;SDS011;64029;48.244;9.188;2023-08-31T12:44:04;3.20;;;2.37;;
75450;SDS011;64029;48.244;9.188;2023-08-31T12:46:31;4.93;;;2.00;;
75450;SDS011;64029;48.244;9.188;2023-08-31T12:48:59;4.30;;;2.13;;
75450;SDS011;64029;48.244;9.188;2023-08-31T12:51:26;4.53;;;2.03;;
75450;SDS011;64029;48.244;9.188;2023-08-31T12:53:54;3.87;;;1.67;;
75450;SDS011;64029;48.244;9.188;2023-08-31T12:56:21;5.53;;;1.93;;
75450;SDS011;64029;48.244;9.188;2023-08-31T12:58:48;6.40;;;2.43;;
75450;SDS011;64029;48.244;9.188;2023-08-31T13:01:17;2.80;;;1.70;;
75450;SDS011;64029;48.244;9.188;2023-08-31T13:03:44;5.40;;;2.00;;
75450;SDS011;64029;48.244;9.188;2023-08-31T13:06:12;2.77;;;1.90;;
75450;SDS011;64029;48.244;9.188;2023-08-31T13:08:39;3.07;;;2.03;;
75450;SDS011;64029;48.244;9.188;2023-08-31T13:11:06;2.90;;;1.70;;
75450;SDS011;64029;48.244;9.188;2023-08-31T13:13:33;3.40;;;1.87;;
75450;SDS011;64029;48.244;9.188;2023-08-31T13:16:00;2.90;;;2.10;;
75450;SDS011;64029;48.244;9.188;2023-08-31T13:18:29;4.50;;;2.13;;
75450;SDS011;64029;48.244;9.188;2023-08-31T13:20:56;5.33;;;2.17;;
75450;SDS011;64029;48.244;9.188;2023-08-31T13:23:23;2.33;;;1.60;;
75450;SDS011;64029;48.244;9.188;2023-08-31T13:25:50;4.20;;;2.27;;
75450;SDS011;64029;48.244;9.188;2023-08-31T13:28:17;7.83;;;2.20;;
75450;SDS011;64029;48.244;9.188;2023-08-31T13:30:44;3.57;;;2.13;;
75450;SDS011;64029;48.244;9.188;2023-08-31T13:33:11;6.97;;;2.53;;
75450;SDS011;64029;48.244;9.188;2023-08-31T13:35:39;5.13;;;2.27;;
75450;SDS011;64029;48.244;9.188;2023-08-31T13:38:06;7.17;;;2.20;;
75450;SDS011;64029;48.244;9.188;2023-08-31T13:40:33;5.70;;;2.27;;
75450;SDS011;64029;48.244;9.188;2023-08-31T13:43:01;3.00;;;2.10;;
75450;SDS011;64029;48.244;9.188;2023-08-31T13:45:29;3.57;;;1.93;;
75450;SDS011;64029;48.244;9.188;2023-08-31T13:47:56;3.63;;;1.63;;
75450;SDS011;64029;48.244;9.188;2023-08-31T13:50:24;3.00;;;2.00;;
75450;SDS011;64029;48.244;9.188;2023-08-31T13:52:53;4.40;;;2.03;;
75450;SDS011;64029;48.244;9.188;2023-08-31T13:55:20;5.10;;;1.97;;
75450;SDS011;64029;48.244;9.188;2023-08-31T13:57:48;4.33;;;1.97;;
75450;SDS011;64029;48.244;9.188;2023-08-31T14:00:16;4.80;;;2.13;;
75450;SDS011;64029;48.244;9.188;2023-08-31T14:02:43;2.33;;;1.90;;
75450;SDS011;64029;48.244;9.188;2023-08-31T14:05:10;3.00;;;1.70;;
75450;SDS011;64029;48.244;9.188;2023-08-31T14:07:37;6.33;;;1.90;;
75450;SDS011;64029;48.244;9.188;2023-08-31T14:10:06;2.90;;;1.77;;
75450;SDS011;64029;48.244;9.188;2023-08-31T14:12:33;3.43;;;1.70;;
75450;SDS011;64029;48.244;9.188;2023-08-31T14:15:00;9.37;;;2.53;;
75450;SDS011;64029;48.244;9.188;2023-08-31T14:17:29;3.97;;;1.90;;
75450;SDS011;64029;48.244;9.188;2023-08-31T14:19:58;2.67;;;1.70;;
75450;SDS011;64029;48.244;9.188;2023-08-31T14:22:26;4.40;;;1.97;;
75450;SDS011;64029;48.244;9.188;2023-08-31T14:24:53;6.07;;;2.20;;
75450;SDS011;64029;48.244;9.188;2023-08-31T14:27:22;2.27;;;1.53;;
75450;SDS011;64029;48.244;9.188;2023-08-31T14:29:49;3.70;;;1.70;;
75450;SDS011;64029;48.244;9.188;2023-08-31T14:32:16;2.50;;;1.83;;
75450;SDS011;64029;48.244;9.188;2023-08-31T14:34:42;4.47;;;1.90;;
75450;SDS011;64029;48.244;9.188;2023-08-31T14:37:09;2.70;;;1.53;;
75450;SDS011;64029;48.244;9.188;2023-08-31T14:39:36;3.70;;;1.90;;
75450;SDS011;64029;48.244;9.188;2023-08-31T14:42:03;3.80;;;2.27;;
75450;SDS011;64029;48.244;9.188;2023-08-31T14:44:31;3.87;;;2.13;;
75450;SDS011;64029;48.244;9.188;2023-08-31T14:46:58;4.20;;;2.00;;
75450;SDS011;64029;48.244;9.188;2023-08-31T14:49:25;4.40;;;1.97;;
75450;SDS011;64029;48.244;9.188;2023-08-31T14:51:52;3.27;;;1.77;;